Flight Track Log - Related Links

Times and Time Zones

All times are in EDT time to prevent confusion due to time zone crossing. See the KLM644 flight status page for this flight to view local times or setup timezone preferences in your user account.

Time Position Orientation Groundspeed Altitude Reporting Facility
EDT Latitude Longitude Course Direction KTS MPH feet Rate Location/Type
Sat 11:04:32 PM 42.2103 -71.5025 231° Southwest  Level FlightAware Approximate
Sat 11:05:32 PM 42.2789 -71.3723 231° Southwest  Level FlightAware Approximate
Sat 11:06:32 PM 42.3474 -71.2419 231° Southwest  Level FlightAware Approximate
Sat 11:07:32 PM 42.4156 -71.1111 232° Southwest  Level FlightAware Approximate
Sat 11:08:32 PM 42.4838 -70.9801 232° Southwest  Level FlightAware Approximate
Sat 11:09:32 PM 42.5518 -70.8488 232° Southwest  Level FlightAware Approximate
Sat 11:10:32 PM 42.6685 -70.8640 230° Southwest  Level FlightAware Approximate
Sat 11:11:32 PM 42.7445 -70.7413 230° Southwest  Level FlightAware Approximate
Sat 11:13:01 PM 41.0217 -73.4149 30° Northeast 373 429 13,000  Level FlightAware ADS-B
Sat 11:13:35 PM 41.0775 -73.3725 30° Northeast 409 471 14,600 2,838 Climbing FlightAware ADS-B
Sat 11:14:15 PM 41.1445 -73.3201 29° Northeast 412 474 16,500 2,411 Climbing FlightAware ADS-B
Sat 11:15:27 PM 41.2669 -73.2281 22° Northeast 410 472 19,100 2,412 Climbing FlightAware ADS-B
Sat 11:15:57 PM 41.3194 -73.2000 24° Northeast 391 450 20,600 2,419 Climbing FlightAware ADS-B
Sat 11:16:29 PM 41.3708 -73.1690 46° Northeast 384 442 21,600 1,558 Climbing FlightAware ADS-B
Sat 11:17:14 PM 41.4303 -73.0881 51° Northeast 397 457 22,600 99 Climbing FlightAware ADS-B
Sat 11:24:32 PM 41.9324 -72.1474 52° Northeast  Level FlightAware Approximate
Sat 11:25:32 PM 42.0006 -72.0174 52° Northeast  Level FlightAware Approximate
Sat 11:26:32 PM 42.0686 -71.8872 52° Northeast  Level FlightAware Approximate
Sat 11:27:32 PM 42.1365 -71.7566 52° Northeast  Level FlightAware Approximate
Sat 11:28:32 PM 42.2042 -71.6257 52° Northeast  Level FlightAware Approximate
Sat 11:29:32 PM 42.2718 -71.4946 52° Northeast  Level FlightAware Approximate
Sat 11:30:32 PM 42.3392 -71.3632 52° Northeast  Level FlightAware Approximate
Sat 11:31:32 PM 42.4065 -71.2315 52° Northeast  Level FlightAware Approximate
Sat 11:32:32 PM 42.4736 -71.0996 52° Northeast  Level FlightAware Approximate
Sat 11:33:32 PM 42.5406 -70.9673 52° Northeast  Level FlightAware Approximate
Sat 11:34:32 PM 42.6074 -70.8348 52° Northeast  Level FlightAware Approximate
Sat 11:35:32 PM 42.6741 -70.7020 52° Northeast  Level FlightAware Approximate
Sat 11:36:32 PM 42.7406 -70.5688 52° Northeast  Level FlightAware Approximate
Sat 11:37:32 PM 42.8070 -70.4355 52° Northeast  Level FlightAware Approximate
Sat 11:38:32 PM 42.8781 -70.3065 52° Northeast  Level FlightAware Approximate
Sat 11:39:32 PM 42.9490 -70.1773 53° Northeast  Level FlightAware Approximate
Sat 11:40:32 PM 43.0198 -70.0477 53° Northeast  Level FlightAware Approximate
Sat 11:41:32 PM 43.0904 -69.9179 53° Northeast  Level FlightAware Approximate
Sat 11:42:32 PM 43.1609 -69.7877 53° Northeast  Level FlightAware Approximate
Sat 11:43:32 PM 43.2313 -69.6573 53° Northeast  Level FlightAware Approximate
Sat 11:44:32 PM 43.3015 -69.5265 53° Northeast  Level FlightAware Approximate
Sat 11:45:32 PM 43.3715 -69.3955 53° Northeast  Level FlightAware Approximate
Sat 11:46:32 PM 43.4414 -69.2642 53° Northeast  Level FlightAware Approximate
Sat 11:47:32 PM 43.5112 -69.1325 53° Northeast  Level FlightAware Approximate
Sat 11:48:32 PM 43.5808 -69.0005 53° Northeast  Level FlightAware Approximate
Sat 11:49:32 PM 43.6502 -68.8683 53° Northeast  Level FlightAware Approximate
Sat 11:50:32 PM 43.7254 -68.7244 53° Northeast  Level FlightAware Approximate
Sat 11:51:32 PM 43.8004 -68.5802 54° Northeast  Level FlightAware Approximate
Sat 11:52:32 PM 43.8753 -68.4356 54° Northeast  Level FlightAware Approximate
Sat 11:53:32 PM 43.9499 -68.2906 54° Northeast  Level FlightAware Approximate
Sat 11:54:32 PM 44.0243 -68.1453 54° Northeast  Level FlightAware Approximate
Sat 11:55:32 PM 44.0986 -67.9996 54° Northeast  Level FlightAware Approximate
Sat 11:56:32 PM 44.1727 -67.8536 54° Northeast  Level FlightAware Approximate
Sat 11:57:32 PM 44.2466 -67.7071 54° Northeast  Level FlightAware Approximate
Sat 11:58:32 PM 44.3203 -67.5603 54° Northeast  Level FlightAware Approximate
Sat 11:59:32 PM 44.3938 -67.4132 54° Northeast  Level FlightAware Approximate
Sun 12:00:32 AM 44.4672 -67.2657 54° Northeast  Level FlightAware Approximate
Sun 12:01:32 AM 44.5403 -67.1178 55° Northeast  Level FlightAware Approximate
Sun 12:02:32 AM 44.6161 -66.9723 55° Northeast  Level FlightAware Approximate
Sun 12:03:32 AM 44.6916 -66.8264 55° Northeast  Level FlightAware Approximate
Sun 12:04:32 AM 44.7670 -66.6802 55° Northeast  Level FlightAware Approximate
Sun 12:05:32 AM 44.8422 -66.5336 55° Northeast  Level FlightAware Approximate
Sun 12:06:32 AM 44.9172 -66.3866 55° Northeast  Level FlightAware Approximate
Sun 12:07:32 AM 44.9920 -66.2392 55° Northeast  Level FlightAware Approximate
Sun 12:08:32 AM 45.0666 -66.0914 55° Northeast  Level FlightAware Approximate
Sun 12:09:32 AM 45.1411 -65.9432 55° Northeast  Level FlightAware Approximate
Sun 12:10:32 AM 45.2153 -65.7947 56° Northeast  Level FlightAware Approximate
Sun 12:11:32 AM 45.2893 -65.6457 56° Northeast  Level FlightAware Approximate
Sun 12:12:32 AM 45.3632 -65.4964 56° Northeast  Level FlightAware Approximate
Sun 12:13:32 AM 45.4369 -65.3467 56° Northeast  Level FlightAware Approximate
Sun 12:14:32 AM 45.5103 -65.1966 56° Northeast  Level FlightAware Approximate
Sun 12:15:32 AM 45.5836 -65.0461 56° Northeast  Level FlightAware Approximate
Sun 12:16:32 AM 45.6567 -64.8952 56° Northeast  Level FlightAware Approximate
Sun 12:17:32 AM 45.7295 -64.7439 56° Northeast  Level FlightAware Approximate
Sun 12:18:32 AM 45.8022 -64.5922 56° Northeast  Level FlightAware Approximate
Sun 12:19:32 AM 45.8746 -64.4401 57° Northeast  Level FlightAware Approximate
Sun 12:20:32 AM 45.9469 -64.2877 57° Northeast  Level FlightAware Approximate
Sun 12:21:32 AM 46.0190 -64.1348 57° Northeast  Level FlightAware Approximate
Sun 12:22:32 AM 46.0908 -63.9815 57° Northeast  Level FlightAware Approximate
Sun 12:23:32 AM 46.1625 -63.8279 57° Northeast  Level FlightAware Approximate
Sun 12:24:32 AM 46.2339 -63.6738 57° Northeast  Level FlightAware Approximate
Sun 12:25:32 AM 46.3052 -63.5193 57° Northeast  Level FlightAware Approximate
Sun 12:26:32 AM 46.3762 -63.3644 57° Northeast  Level FlightAware Approximate
Sun 12:27:32 AM 46.4470 -63.2092 58° Northeast  Level FlightAware Approximate
Sun 12:28:32 AM 46.5176 -63.0535 58° Northeast  Level FlightAware Approximate
Sun 12:29:32 AM 46.5880 -62.8974 58° Northeast  Level FlightAware Approximate
Sun 12:30:32 AM 46.6590 -62.7416 58° Northeast  Level FlightAware Approximate
Sun 12:31:32 AM 46.7297 -62.5855 58° Northeast  Level FlightAware Approximate
Sun 12:32:32 AM 46.8002 -62.4289 58° Northeast  Level FlightAware Approximate
Sun 12:33:32 AM 46.8705 -62.2719 58° Northeast  Level FlightAware Approximate
Sun 12:34:32 AM 46.9406 -62.1145 58° Northeast  Level FlightAware Approximate
Sun 12:35:32 AM 47.0104 -61.9566 59° Northeast  Level FlightAware Approximate
Sun 12:36:32 AM 47.0801 -61.7984 59° Northeast  Level FlightAware Approximate
Sun 12:37:32 AM 47.1495 -61.6398 59° Northeast  Level FlightAware Approximate
Sun 12:38:32 AM 47.2187 -61.4807 59° Northeast  Level FlightAware Approximate
Sun 12:39:32 AM 47.2877 -61.3212 59° Northeast  Level FlightAware Approximate
Sun 12:40:32 AM 47.2900 -61.1350 59° Northeast  Level FlightAware Approximate
Sun 12:41:32 AM 47.3587 -60.9751 59° Northeast  Level FlightAware Approximate
Sun 12:42:32 AM 47.4272 -60.8147 59° Northeast  Level FlightAware Approximate
Sun 12:43:32 AM 47.4954 -60.6539 59° Northeast  Level FlightAware Approximate
Sun 12:44:32 AM 47.5634 -60.4927 59° Northeast  Level FlightAware Approximate
Sun 12:45:32 AM 47.6313 -60.3311 60° Northeast  Level FlightAware Approximate
Sun 12:46:32 AM 47.6988 -60.1691 60° Northeast  Level FlightAware Approximate
Sun 12:47:32 AM 47.7662 -60.0066 60° Northeast  Level FlightAware Approximate
Sun 12:48:32 AM 47.8333 -59.8437 60° Northeast  Level FlightAware Approximate
Sun 12:49:32 AM 47.9002 -59.6804 60° Northeast  Level FlightAware Approximate
Sun 12:50:32 AM 47.9669 -59.5167 60° Northeast  Level FlightAware Approximate
Sun 12:51:32 AM 48.0333 -59.3526 60° Northeast  Level FlightAware Approximate
Sun 12:52:32 AM 48.0995 -59.1880 61° Northeast  Level FlightAware Approximate
Sun 12:53:32 AM 48.1654 -59.0230 61° Northeast  Level FlightAware Approximate
Sun 12:54:32 AM 48.2312 -58.8576 61° Northeast  Level FlightAware Approximate
Sun 12:55:32 AM 48.2966 -58.6917 61° Northeast  Level FlightAware Approximate
Sun 12:56:32 AM 48.3619 -58.5255 61° Northeast  Level FlightAware Approximate
Sun 12:57:32 AM 48.4269 -58.3588 61° Northeast  Level FlightAware Approximate
Sun 12:58:32 AM 48.4916 -58.1917 62° Northeast  Level FlightAware Approximate
Sun 12:59:32 AM 48.5562 -58.0241 62° Northeast  Level FlightAware Approximate
Sun 01:00:32 AM 48.6204 -57.8561 62° Northeast  Level FlightAware Approximate
Sun 01:01:32 AM 48.6845 -57.6877 62° Northeast  Level FlightAware Approximate
Sun 01:02:32 AM 48.7474 -57.5182 62° Northeast  Level FlightAware Approximate
Sun 01:03:32 AM 48.8101 -57.3482 62° Northeast  Level FlightAware Approximate
Sun 01:04:32 AM 48.8726 -57.1778 63° Northeast  Level FlightAware Approximate
Sun 01:05:32 AM 48.9348 -57.0070 63° Northeast  Level FlightAware Approximate
Sun 01:06:32 AM 48.9967 -56.8357 63° Northeast  Level FlightAware Approximate
Sun 01:07:32 AM 49.0584 -56.6641 63° Northeast  Level FlightAware Approximate
Sun 01:08:32 AM 49.1198 -56.4920 63° Northeast  Level FlightAware Approximate
Sun 01:09:32 AM 49.1810 -56.3195 63° Northeast  Level FlightAware Approximate
Sun 01:10:32 AM 49.2419 -56.1465 64° Northeast  Level FlightAware Approximate
Sun 01:11:32 AM 49.3026 -55.9731 64° Northeast  Level FlightAware Approximate
Sun 01:12:32 AM 49.3630 -55.7993 64° Northeast  Level FlightAware Approximate
Sun 01:13:32 AM 49.4231 -55.6251 64° Northeast  Level FlightAware Approximate
Sun 01:14:32 AM 49.4830 -55.4504 64° Northeast  Level FlightAware Approximate
Sun 01:15:32 AM 49.5426 -55.2754 65° Northeast  Level FlightAware Approximate
Sun 01:16:32 AM 49.6020 -55.0998 65° Northeast  Level FlightAware Approximate
Sun 01:17:32 AM 49.6611 -54.9239 65° Northeast  Level FlightAware Approximate
Sun 01:18:32 AM 49.7185 -54.7465 65° Northeast  Level FlightAware Approximate
Sun 01:19:32 AM 49.7757 -54.5687 65° Northeast  Level FlightAware Approximate
Sun 01:20:32 AM 49.8327 -54.3904 66° East  Level FlightAware Approximate
Sun 01:21:32 AM 49.8894 -54.2118 66° East  Level FlightAware Approximate
Sun 01:22:32 AM 49.9458 -54.0327 66° East  Level FlightAware Approximate
Sun 01:23:32 AM 50.0019 -53.8532 66° East  Level FlightAware Approximate
Sun 01:24:32 AM 50.0577 -53.6732 67° East  Level FlightAware Approximate
Sun 01:25:32 AM 50.1133 -53.4929 67° East  Level FlightAware Approximate
Sun 01:26:32 AM 50.1685 -53.3121 67° East  Level FlightAware Approximate
Sun 01:27:32 AM 50.2235 -53.1310 67° East  Level FlightAware Approximate
Sun 01:28:32 AM 50.2783 -52.9494 68° East  Level FlightAware Approximate
Sun 01:29:32 AM 50.3327 -52.7674 68° East  Level FlightAware Approximate
Sun 01:30:32 AM 50.3868 -52.5849 68° East  Level FlightAware Approximate
Sun 01:31:32 AM 50.4407 -52.4021 69° East  Level FlightAware Approximate
Sun 01:32:00 AM 51.0000 -50.0000 68° East 475 547 35,000  Level ETMS Enhanced Traffic Management System
Sun 02:22:00 AM 53.0000 -40.0000 76° East 471 542 35,000  Level ETMS Enhanced Traffic Management System
Sun 03:09:00 AM 54.0000 -30.0000 86° East 491 565 35,000  Level ETMS Enhanced Traffic Management System
Sun 03:09:32 AM 54.0672 -29.2383 89° East  Level FlightAware Approximate
Sun 03:10:32 AM 54.0845 -29.0215 91° East  Level FlightAware Approximate
Sun 03:11:32 AM 54.1014 -28.8045 92° East  Level FlightAware Approximate
Sun 03:12:32 AM 54.1180 -28.5874 95° East  Level FlightAware Approximate
Sun 03:16:32 AM 54.0716 -27.7861 88° East 491 565 35,000  Level FlightAware Transoceanic
Sun 03:17:32 AM 54.0768 -27.5535 88° East 491 565 35,000  Level FlightAware Transoceanic
Sun 03:18:32 AM 54.0815 -27.3209 88° East 491 565 35,000  Level FlightAware Transoceanic
Sun 03:19:32 AM 54.0857 -27.0881 88° East 491 565 35,000  Level FlightAware Transoceanic
Sun 03:20:32 AM 54.0895 -26.8554 88° East 491 565 35,000  Level FlightAware Transoceanic
Sun 03:21:32 AM 54.0929 -26.6226 89° East 491 565 35,000  Level FlightAware Transoceanic
Sun 03:22:32 AM 54.0958 -26.3897 89° East 491 565 35,000  Level FlightAware Transoceanic
Sun 03:23:32 AM 54.0983 -26.1569 89° East 491 565 35,000  Level FlightAware Transoceanic
Sun 03:24:32 AM 54.1003 -25.9240 89° East 491 565 35,000  Level FlightAware Transoceanic
Sun 03:25:32 AM 54.1018 -25.6910 89° East 491 565 35,000  Level FlightAware Transoceanic
Sun 03:26:32 AM 54.1029 -25.4581 90° East 491 565 35,000  Level FlightAware Transoceanic
Sun 03:27:32 AM 54.1036 -25.2252 90° East 491 565 35,000  Level FlightAware Transoceanic
Sun 03:28:32 AM 54.1038 -24.9922 90° East 491 565 35,000  Level FlightAware Transoceanic
Sun 03:29:32 AM 54.1036 -24.7593 90° East 491 565 35,000  Level FlightAware Transoceanic
Sun 03:30:32 AM 54.1029 -24.5264 90° East 491 565 35,000  Level FlightAware Transoceanic
Sun 03:31:32 AM 54.1017 -24.2934 91° East 491 565 35,000  Level FlightAware Transoceanic
Sun 03:32:32 AM 54.1002 -24.0605 91° East 491 565 35,000  Level FlightAware Transoceanic
Sun 03:33:32 AM 54.0981 -23.8276 91° East 491 565 35,000  Level FlightAware Transoceanic
Sun 03:34:32 AM 54.0956 -23.5947 91° East 491 565 35,000  Level FlightAware Transoceanic
Sun 03:35:32 AM 54.0927 -23.3619 91° East 491 565 35,000  Level FlightAware Transoceanic
Sun 03:36:32 AM 54.0893 -23.1291 92° East 491 565 35,000  Level FlightAware Transoceanic
Sun 03:37:32 AM 54.0855 -22.8963 92° East 491 565 35,000  Level FlightAware Transoceanic
Sun 03:38:32 AM 54.0812 -22.6636 92° East 491 565 35,000  Level FlightAware Transoceanic
Sun 03:39:32 AM 54.0765 -22.4310 92° East 491 565 35,000  Level FlightAware Transoceanic
Sun 03:40:32 AM 54.0713 -22.1984 92° East 491 565 35,000  Level FlightAware Transoceanic
Sun 03:41:32 AM 54.0656 -21.9658 92° East 491 565 35,000  Level FlightAware Transoceanic
Sun 03:42:32 AM 54.0596 -21.7333 93° East 491 565 35,000  Level FlightAware Transoceanic
Sun 03:43:32 AM 54.0530 -21.5009 93° East 491 565 35,000  Level FlightAware Transoceanic
Sun 03:44:32 AM 54.0460 -21.2686 93° East 491 565 35,000  Level FlightAware Transoceanic
Sun 03:45:32 AM 54.0386 -21.0363 93° East 491 565 35,000  Level FlightAware Transoceanic
Sun 03:46:32 AM 54.0308 -20.8041 93° East 491 565 35,000  Level FlightAware Transoceanic
Sun 03:47:32 AM 54.0224 -20.5721 94° East 491 565 35,000  Level FlightAware Transoceanic
Sun 03:48:32 AM 54.0137 -20.3401 94° East 491 565 35,000  Level FlightAware Transoceanic
Sun 03:49:32 AM 54.0045 -20.1082 87° East 491 565 35,000 28 Level FlightAware Transoceanic
Sun 03:50:32 AM 54.0095 -19.8899 87° East  Level FlightAware Approximate
Sun 03:51:32 AM 54.0142 -19.6716 87° East  Level FlightAware Approximate
Sun 03:52:32 AM 54.0184 -19.4533 87° East  Level FlightAware Approximate
Sun 03:53:32 AM 54.0223 -19.2349 87° East  Level FlightAware Approximate
Sun 03:54:32 AM 54.0258 -19.0165 87° East  Level FlightAware Approximate
Sun 03:55:32 AM 54.0289 -18.7980 88° East  Level FlightAware Approximate
Sun 03:56:32 AM 54.0316 -18.5795 88° East  Level FlightAware Approximate
Sun 03:57:32 AM 54.0339 -18.3610 88° East  Level FlightAware Approximate
Sun 03:58:32 AM 54.0358 -18.1425 88° East  Level FlightAware Approximate
Sun 03:59:32 AM 54.0373 -17.9239 88° East  Level FlightAware Approximate
Sun 04:00:32 AM 54.0383 -17.7053 88° East  Level FlightAware Approximate
Sun 04:01:32 AM 54.0391 -17.4867 89° East  Level FlightAware Approximate
Sun 04:02:32 AM 54.0394 -17.2682 89° East  Level FlightAware Approximate
Sun 04:03:32 AM 54.0393 -17.0496 89° East  Level FlightAware Approximate
Sun 04:04:32 AM 54.0388 -16.8310 89° East  Level FlightAware Approximate
Sun 04:05:32 AM 54.0379 -16.6124 89° East  Level FlightAware Approximate
Sun 04:06:32 AM 54.0366 -16.3939 89° East  Level FlightAware Approximate
Sun 04:07:32 AM 54.0350 -16.1753 90° East  Level FlightAware Approximate
Sun 04:08:32 AM 54.0329 -15.9568 90° East  Level FlightAware Approximate
Sun 04:09:32 AM 54.0304 -15.7383 90° East  Level FlightAware Approximate
Sun 04:10:32 AM 54.0275 -15.5198 90° East  Level FlightAware Approximate
Sun 04:11:32 AM 54.0243 -15.3013 90° East  Level FlightAware Approximate
Sun 04:12:32 AM 54.0206 -15.0829 90° East  Level FlightAware Approximate
Sun 04:13:32 AM 54.0166 -14.8645 90° East  Level FlightAware Approximate
Sun 04:14:32 AM 54.0121 -14.6462 91° East  Level FlightAware Approximate
Sun 04:15:32 AM 54.0073 -14.4279 91° East  Level FlightAware Approximate
Sun 04:16:32 AM 54.0020 -14.2097 91° East  Level FlightAware Approximate
Sun 04:17:32 AM 53.9964 -13.9916 91° East  Level FlightAware Approximate
Sun 04:18:32 AM 53.9904 -13.7735 91° East  Level FlightAware Approximate
Sun 04:19:32 AM 53.9840 -13.5554 91° East  Level FlightAware Approximate
Sun 04:20:32 AM 53.9772 -13.3375 91° East  Level FlightAware Approximate
Sun 04:21:32 AM 53.9700 -13.1211 92° East  Level FlightAware Approximate
Sun 04:22:32 AM 53.9625 -12.9049 92° East  Level FlightAware Approximate
Sun 04:23:32 AM 53.9545 -12.6887 92° East  Level FlightAware Approximate
Sun 04:24:32 AM 53.9462 -12.4726 92° East  Level FlightAware Approximate
Sun 04:25:32 AM 53.9375 -12.2567 92° East  Level FlightAware Approximate
Sun 04:26:32 AM 53.9319 -12.0404 92° East  Level FlightAware Approximate
Sun 04:27:32 AM 53.9259 -11.8242 93° East  Level FlightAware Approximate
Sun 04:28:32 AM 53.9194 -11.6081 93° East  Level FlightAware Approximate
Sun 04:29:32 AM 53.9127 -11.3920 93° East  Level FlightAware Approximate
Sun 04:30:32 AM 53.9055 -11.1761 93° East  Level FlightAware Approximate
Sun 04:31:32 AM 53.8979 -10.9602 93° East  Level FlightAware Approximate
Sun 04:32:32 AM 53.8899 -10.7444 93° East  Level FlightAware Approximate
Sun 04:33:32 AM 53.8816 -10.5286 94° East  Level FlightAware Approximate
Sun 04:34:32 AM 53.8729 -10.3130 94° East  Level FlightAware Approximate
Sun 04:35:32 AM 53.8643 -10.0973 94° East  Level FlightAware Approximate
Sun 04:36:32 AM 53.8554 -9.8818 94° East  Level FlightAware Approximate
Sun 04:37:32 AM 53.8460 -9.6664 94° East  Level FlightAware Approximate
Sun 04:38:32 AM 53.8363 -9.4510 94° East  Level FlightAware Approximate
Sun 04:39:32 AM 53.8262 -9.2358 95° East  Level FlightAware Approximate
Sun 04:40:32 AM 53.8158 -9.0206 95° East  Level FlightAware Approximate
Sun 04:41:32 AM 53.8049 -8.8056 95° East  Level FlightAware Approximate
Sun 04:42:32 AM 53.7936 -8.5907 95° East  Level FlightAware Approximate
Sun 04:43:32 AM 53.7820 -8.3759 95° East  Level FlightAware Approximate
Sun 04:44:32 AM 53.7700 -8.1612 95° East  Level FlightAware Approximate
Sun 04:45:32 AM 53.7576 -7.9466 96° East  Level FlightAware Approximate
Sun 04:46:32 AM 53.7448 -7.7322 96° East  Level FlightAware Approximate
Sun 04:47:32 AM 53.7316 -7.5179 96° East  Level FlightAware Approximate
Sun 04:48:32 AM 53.7181 -7.3038 96° East  Level FlightAware Approximate
Sun 04:49:32 AM 53.7041 -7.0897 96° East  Level FlightAware Approximate
Sun 04:50:32 AM 53.6898 -6.8759 96° East  Level FlightAware Approximate
Sun 04:51:32 AM 53.6751 -6.6622 97° East  Level FlightAware Approximate
Sun 04:52:32 AM 53.6601 -6.4486 97° East  Level FlightAware Approximate
Sun 04:53:32 AM 53.6446 -6.2352 97° East  Level FlightAware Approximate
Sun 04:54:32 AM 53.6288 -6.0219 97° East  Level FlightAware Approximate
Sun 04:55:32 AM 53.6126 -5.8088 97° East  Level FlightAware Approximate
Sun 04:56:32 AM 53.5960 -5.5959 97° East  Level FlightAware Approximate
Sun 04:57:32 AM 53.5790 -5.3831 97° East  Level FlightAware Approximate
Sun 04:59:15 AM 53.4145 -3.4615 94° East 520 598 37,000  Level FlightAware ADS-B
Sun 04:59:49 AM 53.4085 -3.3251 94° East 520 598 37,000  Level FlightAware ADS-B
Sun 05:00:26 AM 53.4020 -3.1768 94° East 520 598 37,000  Level FlightAware ADS-B
Sun 05:00:59 AM 53.3961 -3.0486 94° East 519 597 37,000  Level FlightAware ADS-B
Sun 05:01:42 AM 53.3879 -2.8727 95° East 519 597 37,000  Level FlightAware ADS-B
Sun 05:02:18 AM 53.3810 -2.7331 95° East 519 597 37,000  Level FlightAware ADS-B
Sun 05:02:48 AM 53.3749 -2.6093 95° East 518 596 37,000  Level FlightAware ADS-B
Sun 05:03:38 AM 53.3648 -2.4103 98° East 518 596 37,000  Level FlightAware ADS-B
Sun 05:04:51 AM 53.3417 -2.1258 100° East 517 595 37,000  Level FlightAware ADS-B
Sun 05:05:05 AM 53.3361 -2.0708 99° East 516 594 37,000  Level FlightAware ADS-B
Sun 05:05:36 AM 53.3241 -1.9486 99° East 517 595 37,000  Level FlightAware ADS-B
Sun 05:06:09 AM 53.3113 -1.8153 100° East 516 594 37,000  Level FlightAware ADS-B
Sun 05:06:42 AM 53.2977 -1.6854 100° East 517 595 37,000  Level FlightAware ADS-B
Sun 05:07:13 AM 53.2846 -1.5638 100° East 518 596 37,000  Level FlightAware ADS-B
Sun 05:07:45 AM 53.2709 -1.4380 101° East 518 596 37,000  Level FlightAware ADS-B
Sun 05:08:16 AM 53.2578 -1.3204 101° East 519 597 37,000  Level FlightAware ADS-B
Sun 05:08:46 AM 53.2446 -1.2028 100° East 518 596 37,000  Level FlightAware ADS-B
Sun 05:09:21 AM 53.2291 -1.0616 101° East 518 596 37,000  Level FlightAware ADS-B
Sun 05:10:45 AM 53.1919 -0.7336 101° East 516 594 37,000  Level FlightAware ADS-B
Sun 05:11:17 AM 53.1776 -0.6131 101° East 514 592 37,000  Level FlightAware ADS-B
Sun 05:12:03 AM 53.1569 -0.4344 101° East 515 593 37,000  Level FlightAware ADS-B
Sun 05:12:33 AM 53.1427 -0.3142 101° East 515 593 37,000  Level FlightAware ADS-B
Sun 05:13:06 AM 53.1274 -0.1864 102° East 515 593 37,000  Level FlightAware ADS-B
Sun 05:13:41 AM 53.1211 -0.1360 101° East 514 592 37,000  Level FlightAware ADS-B
Sun 05:13:59 AM 53.1053 -0.0044 101° East 514 592 37,000  Level FlightAware ADS-B
Sun 05:14:32 AM 53.0874 0.1423 102° East 514 592 37,000  Level FlightAware ADS-B
Sun 05:15:06 AM 53.0712 0.2740 102° East 516 594 37,000  Level FlightAware ADS-B
Sun 05:15:36 AM 53.0563 0.3939 102° East 515 593 37,000  Level FlightAware ADS-B
Sun 05:16:14 AM 53.0380 0.5367 102° East 514 592 37,000  Level FlightAware ADS-B
Sun 05:16:45 AM 53.0225 0.6601 102° East 514 592 37,000  Level FlightAware ADS-B
Sun 05:17:16 AM 53.0075 0.7758 102° East 513 590 37,000  Level FlightAware ADS-B
Sun 05:17:46 AM 52.9926 0.8949 102° East 514 592 37,000  Level FlightAware ADS-B
Sun 05:18:18 AM 52.9768 1.0143 101° East 514 592 37,000  Level FlightAware ADS-B
Sun 05:18:48 AM 52.9629 1.1299 100° East 514 592 37,000  Level FlightAware ADS-B
Sun 05:19:18 AM 52.9497 1.2497 101° East 511 588 37,000 -590 Level FlightAware ADS-B
Sun 05:19:49 AM 52.9361 1.3682 101° East 509 586 36,400 -1,645 Descending FlightAware ADS-B
Sun 05:20:20 AM 52.9225 1.4857 101° East 502 578 35,300 -2,361 Descending FlightAware ADS-B
Sun 05:20:50 AM 52.9091 1.5982 110° East 497 572 34,000 -2,600 Descending FlightAware ADS-B
Sun 05:28:32 AM 52.5769 3.0753 105° East  Level FlightAware Approximate
Sun 05:29:32 AM 52.5440 3.2778 105° East  Level FlightAware Approximate
Sun 05:30:32 AM 52.5108 3.4801 105° East  Level FlightAware Approximate
Sun 05:31:32 AM 52.4772 3.6820 103° East  Level FlightAware Approximate
Sun 05:32:32 AM 52.4475 3.8853 106° East  Level FlightAware Approximate
Sun 05:33:32 AM 52.4121 4.0861 105° East  Level FlightAware Approximate
Sun 05:34:32 AM 52.3800 4.2835 103° East  Level FlightAware Approximate
Sun 05:35:32 AM 52.3519 4.4852 110° East  Level FlightAware Approximate
Sun 05:36:32 AM 52.3089 4.6790 90° East  Level FlightAware Approximate
Sun 05:37:32 AM 52.3081 4.8864 270° West  Level Estimated
Sun 05:38:32 AM 52.3089 4.6790 90° East  Level Estimated
Sun 05:39:32 AM 52.3081 4.8864 265° West  Level Estimated
Sun 05:40:32 AM 52.3000 4.7500 45° Northeast  Level FlightAware Approximate
Sun 05:41:32 AM 52.3902 4.8959 225° Southwest  Level Estimated
Sun 05:42:32 AM 52.3000 4.7500 45° Northeast  Level FlightAware Approximate
Sun 05:43:32 AM 52.3902 4.8959 225° Southwest  Level Estimated
Sun 05:44:32 AM 52.3000 4.7500 225° Southwest  Level FlightAware Approximate

Login

Don't have an account? Register now (free) for customized features, flight alerts, and more!